createdAt,value
2019-05-07T00:01:58.277Z,99.90
2019-05-07T00:04:33.256Z,99.90
2019-05-07T00:07:04.743Z,99.90
2019-05-07T00:09:35.196Z,99.90
2019-05-07T00:12:05.921Z,99.90
2019-05-07T00:14:42.706Z,99.90
2019-05-07T00:17:32.361Z,99.90
2019-05-07T00:20:02.831Z,99.90
2019-05-07T00:22:33.468Z,99.90
2019-05-07T00:25:03.777Z,99.90
2019-05-07T00:27:37.029Z,99.90
2019-05-07T00:30:07.371Z,99.90
2019-05-07T00:32:39.278Z,99.90
2019-05-07T00:35:13.068Z,99.90
2019-05-07T00:37:52.439Z,99.90
2019-05-07T00:40:36.427Z,99.90
2019-05-07T00:43:26.162Z,99.90
2019-05-07T00:46:02.144Z,99.90
2019-05-07T00:48:32.840Z,99.90
2019-05-07T00:51:22.639Z,99.90
2019-05-07T00:53:59.678Z,99.90
2019-05-07T00:56:30.122Z,99.90
2019-05-07T00:59:02.324Z,99.90
2019-05-07T01:01:33.692Z,99.90
2019-05-07T01:04:03.930Z,99.90
2019-05-07T01:06:34.729Z,99.90
2019-05-07T01:09:06.513Z,99.90
2019-05-07T01:11:36.623Z,99.90
2019-05-07T01:14:06.896Z,99.90
2019-05-07T01:16:42.109Z,99.90
2019-05-07T01:19:15.913Z,99.90
2019-05-07T01:21:46.186Z,99.90
2019-05-07T01:24:16.787Z,99.90
2019-05-07T01:26:47.121Z,99.90
2019-05-07T01:29:17.354Z,99.90
2019-05-07T01:31:56.481Z,99.90
2019-05-07T01:34:32.733Z,99.90
2019-05-07T01:37:03.203Z,99.90
2019-05-07T01:39:38.214Z,99.90
2019-05-07T01:42:08.509Z,99.90
2019-05-07T01:44:38.675Z,99.90
2019-05-07T01:47:09.215Z,99.90
2019-05-07T01:49:41.977Z,99.90
2019-05-07T01:52:13.327Z,99.90
2019-05-07T01:54:43.502Z,99.90
2019-05-07T01:57:13.628Z,99.90
2019-05-07T01:59:47.655Z,99.90
2019-05-07T02:02:32.051Z,99.90
2019-05-07T02:05:15.032Z,99.90
2019-05-07T02:07:52.130Z,99.90
2019-05-07T02:10:37.086Z,99.90
2019-05-07T02:13:07.607Z,99.90
2019-05-07T02:15:37.847Z,99.90
2019-05-07T02:18:12.441Z,99.90
2019-05-07T02:20:46.829Z,99.90
2019-05-07T02:23:17.025Z,99.90
2019-05-07T02:25:47.343Z,99.90
2019-05-07T02:28:17.452Z,99.90
2019-05-07T02:30:47.823Z,99.90
2019-05-07T02:33:22.974Z,99.90
2019-05-07T02:35:53.598Z,99.90
2019-05-07T02:38:44.261Z,99.90
2019-05-07T02:41:18.854Z,99.90
2019-05-07T02:43:49.033Z,99.90
2019-05-07T02:46:44.925Z,99.90
2019-05-07T02:49:36.830Z,99.90
2019-05-07T02:52:44.648Z,99.90
2019-05-07T02:55:23.959Z,99.90
2019-05-07T02:57:56.403Z,99.90
2019-05-07T03:00:28.035Z,99.90
2019-05-07T03:02:58.629Z,99.90
2019-05-07T03:05:29.326Z,99.90
2019-05-07T03:07:59.540Z,99.90
2019-05-07T03:10:34.125Z,99.90
2019-05-07T03:13:04.228Z,99.90
2019-05-07T03:15:34.689Z,99.90
2019-05-07T03:18:05.295Z,99.90
2019-05-07T03:20:53.231Z,99.90
2019-05-07T03:23:25.395Z,99.90
2019-05-07T03:26:08.827Z,99.90
2019-05-07T03:28:59.882Z,99.90
2019-05-07T03:31:37.026Z,99.90
2019-05-07T03:34:26.494Z,99.90
2019-05-07T03:36:57.716Z,99.90
2019-05-07T03:39:28.746Z,99.90
2019-05-07T03:41:59.141Z,99.90
2019-05-07T03:44:48.881Z,99.90
2019-05-07T03:47:32.886Z,99.90
2019-05-07T03:50:03.391Z,99.90
2019-05-07T03:52:34.593Z,99.90
2019-05-07T03:55:05.298Z,99.90
2019-05-07T03:57:35.550Z,99.90
2019-05-07T04:00:07.681Z,99.90
2019-05-07T04:02:39.351Z,99.90
2019-05-07T04:05:13.633Z,99.90
2019-05-07T04:07:42.965Z,99.90
2019-05-07T04:10:15.047Z,99.90
2019-05-07T04:12:46.247Z,99.90
2019-05-07T04:15:19.396Z,99.90
2019-05-07T04:17:48.744Z,99.90
2019-05-07T04:20:19.357Z,99.90
2019-05-07T04:22:49.589Z,99.90
2019-05-07T04:25:39.318Z,99.90
2019-05-07T04:28:19.683Z,99.90
2019-05-07T04:30:53.059Z,99.90
2019-05-07T04:33:24.503Z,99.90
2019-05-07T04:36:04.198Z,99.90
2019-05-07T04:38:34.463Z,99.90
2019-05-07T04:41:05.117Z,99.90
2019-05-07T04:43:35.806Z,99.90
2019-05-07T04:46:07.542Z,99.90
2019-05-07T04:48:37.692Z,99.90
2019-05-07T04:51:12.458Z,99.90
2019-05-07T04:53:42.880Z,99.90
2019-05-07T04:56:16.806Z,99.90
2019-05-07T04:58:47.526Z,99.90
2019-05-07T05:01:23.431Z,99.90
2019-05-07T05:03:54.222Z,99.90
2019-05-07T05:06:28.340Z,99.90
2019-05-07T05:08:59.334Z,99.90
2019-05-07T05:11:29.805Z,99.90
2019-05-07T05:14:02.799Z,99.90
2019-05-07T05:16:32.820Z,99.90
2019-05-07T05:19:03.728Z,99.90
2019-05-07T05:22:12.813Z,99.90
2019-05-07T05:24:46.279Z,99.90
2019-05-07T05:27:16.716Z,99.90
2019-05-07T05:29:47.103Z,99.90
2019-05-07T05:32:17.263Z,99.90
2019-05-07T05:34:48.625Z,99.90
2019-05-07T05:37:19.850Z,99.90
2019-05-07T05:40:04.823Z,99.90
2019-05-07T05:42:35.418Z,99.90
2019-05-07T05:45:08.519Z,99.90
2019-05-07T05:47:41.859Z,99.90
2019-05-07T05:50:13.559Z,99.90
2019-05-07T05:52:52.048Z,99.90
2019-05-07T05:55:22.753Z,99.90
2019-05-07T05:58:13.169Z,99.90
2019-05-07T06:01:05.656Z,99.90
2019-05-07T06:03:58.540Z,99.90
2019-05-07T06:06:48.496Z,99.90
2019-05-07T06:09:28.459Z,99.90
2019-05-07T06:12:13.954Z,99.90
2019-05-07T06:14:54.447Z,99.90
2019-05-07T06:17:47.145Z,99.90
2019-05-07T06:20:52.356Z,99.90
2019-05-07T06:23:35.271Z,99.90
2019-05-07T06:26:06.172Z,99.90
2019-05-07T06:28:37.358Z,99.90
2019-05-07T06:31:12.679Z,99.90
2019-05-07T06:33:53.805Z,99.90
2019-05-07T06:36:27.472Z,99.90
2019-05-07T06:39:06.527Z,99.90
2019-05-07T06:42:07.579Z,99.90
2019-05-07T06:44:42.744Z,99.90
2019-05-07T06:47:13.158Z,99.90
2019-05-07T06:49:49.613Z,99.90
2019-05-07T06:52:22.266Z,99.90
2019-05-07T06:54:52.404Z,99.90
2019-05-07T06:57:24.628Z,99.90
2019-05-07T07:00:03.599Z,99.90
2019-05-07T07:02:44.605Z,99.90
2019-05-07T07:05:25.854Z,99.90
2019-05-07T07:08:02.180Z,99.90
2019-05-07T07:10:53.459Z,99.90
2019-05-07T07:13:35.226Z,99.90
2019-05-07T07:16:06.472Z,99.90
2019-05-07T07:18:48.530Z,99.90
2019-05-07T07:21:12.407Z,99.90
2019-05-07T07:23:53.552Z,99.90
2019-05-07T07:26:26.859Z,99.90
2019-05-07T07:28:58.707Z,99.90
2019-05-07T07:31:58.081Z,99.90
2019-05-07T07:34:42.532Z,99.90
2019-05-07T07:37:32.050Z,99.90
2019-05-07T07:40:32.677Z,99.90
2019-05-07T07:43:06.501Z,99.90
2019-05-07T07:45:42.013Z,99.90
2019-05-07T07:48:14.452Z,99.90
2019-05-07T07:50:46.721Z,99.90
2019-05-07T07:53:22.705Z,99.90
2019-05-07T07:56:13.203Z,99.90
2019-05-07T07:59:06.448Z,99.90
2019-05-07T08:02:01.875Z,99.90
2019-05-07T08:04:32.560Z,99.90
2019-05-07T08:07:13.465Z,99.90
2019-05-07T08:09:44.500Z,99.90
2019-05-07T08:12:16.003Z,99.90
2019-05-07T08:14:52.106Z,99.90
2019-05-07T08:17:28.888Z,99.90
2019-05-07T08:20:02.547Z,99.90
2019-05-07T08:22:37.943Z,99.90
2019-05-07T08:25:09.625Z,99.90
2019-05-07T08:27:44.149Z,99.90
2019-05-07T08:30:26.947Z,99.90
2019-05-07T08:33:02.241Z,99.90
2019-05-07T08:35:43.141Z,99.90
2019-05-07T08:38:21.907Z,99.90
2019-05-07T08:40:55.773Z,99.90
2019-05-07T08:43:27.001Z,99.90
2019-05-07T08:46:42.078Z,99.90
2019-05-07T08:49:12.367Z,99.90
2019-05-07T08:51:51.868Z,99.90
2019-05-07T08:54:27.444Z,99.90
2019-05-07T08:57:05.880Z,99.90
2019-05-07T08:59:57.145Z,99.90
2019-05-07T09:02:18.241Z,99.90
2019-05-07T09:04:52.299Z,99.90
2019-05-07T09:07:24.264Z,99.90
2019-05-07T09:10:02.546Z,99.90
2019-05-07T09:12:33.584Z,99.90
2019-05-07T09:15:12.462Z,99.90
2019-05-07T09:17:43.633Z,99.90
2019-05-07T09:20:17.043Z,99.90
2019-05-07T09:22:48.174Z,99.90
2019-05-07T09:25:22.425Z,99.90
2019-05-07T09:27:54.099Z,99.90
2019-05-07T09:30:45.973Z,99.90
2019-05-07T09:33:43.592Z,99.90
2019-05-07T09:36:32.714Z,99.90
2019-05-07T09:39:08.469Z,99.90
2019-05-07T09:41:41.844Z,99.90
2019-05-07T09:44:23.215Z,99.90
2019-05-07T09:47:04.521Z,99.90
2019-05-07T09:49:36.941Z,99.90
2019-05-07T09:52:16.514Z,99.90
2019-05-07T09:54:52.291Z,99.90
2019-05-07T09:57:30.928Z,99.90
2019-05-07T09:59:56.047Z,99.90
2019-05-07T10:02:28.424Z,99.90
2019-05-07T10:05:05.908Z,99.90
2019-05-07T10:07:39.567Z,99.90
2019-05-07T10:10:11.950Z,99.90
2019-05-07T10:13:07.912Z,99.90
2019-05-07T10:15:41.812Z,99.90
2019-05-07T10:18:22.890Z,99.90
2019-05-07T10:21:02.498Z,99.90
2019-05-07T10:23:33.943Z,99.90
2019-05-07T10:26:09.461Z,99.90
2019-05-07T10:28:43.268Z,99.90
2019-05-07T10:31:33.288Z,99.90
2019-05-07T10:34:06.789Z,99.90
2019-05-07T10:36:37.793Z,99.90
2019-05-07T10:39:13.116Z,99.90
2019-05-07T10:41:47.867Z,99.90
2019-05-07T10:44:22.908Z,99.90
2019-05-07T10:47:13.826Z,99.90
2019-05-07T10:49:55.129Z,99.90
2019-05-07T10:52:27.467Z,99.90
2019-05-07T10:55:02.861Z,99.90
2019-05-07T10:57:35.026Z,99.90
2019-05-07T11:00:17.338Z,99.90
2019-05-07T11:03:13.426Z,99.90
2019-05-07T11:05:57.940Z,99.90
2019-05-07T11:08:28.602Z,99.90
2019-05-07T11:11:03.128Z,99.90
2019-05-07T11:13:38.882Z,99.90
2019-05-07T11:16:17.816Z,99.90
2019-05-07T11:18:56.958Z,99.90
2019-05-07T11:21:37.939Z,99.90
2019-05-07T11:24:33.023Z,99.90
2019-05-07T11:27:17.643Z,99.90
2019-05-07T11:30:08.763Z,99.90
2019-05-07T11:32:46.470Z,99.90
2019-05-07T11:35:17.810Z,99.90
2019-05-07T11:37:57.292Z,99.90
2019-05-07T11:40:34.788Z,99.90
2019-05-07T11:43:36.237Z,99.90
2019-05-07T11:46:44.589Z,99.90
2019-05-07T11:49:29.246Z,99.90
2019-05-07T11:52:12.267Z,99.90
2019-05-07T11:54:57.397Z,99.90
2019-05-07T11:57:27.769Z,99.90
2019-05-07T12:00:02.851Z,99.90
2019-05-07T12:02:35.161Z,99.90
2019-05-07T12:05:06.220Z,99.90
2019-05-07T12:07:37.036Z,99.90
2019-05-07T12:10:13.469Z,99.40
2019-05-07T12:12:49.345Z,99.60
2019-05-07T12:15:22.839Z,98.80
2019-05-07T12:17:55.714Z,98.60
2019-05-07T12:20:37.717Z,99.50
2019-05-07T12:23:15.997Z,99.30
2019-05-07T12:25:47.356Z,99.50
2019-05-07T12:28:32.754Z,99.70
2019-05-07T12:31:17.180Z,98.20
2019-05-07T12:34:02.432Z,97.90
2019-05-07T12:36:41.924Z,97.90
2019-05-07T12:39:15.260Z,96.70
2019-05-07T12:41:46.622Z,98.80
2019-05-07T12:44:17.809Z,99.40
2019-05-07T12:46:49.431Z,99.90
2019-05-07T12:49:22.153Z,99.90
2019-05-07T12:52:24.700Z,99.90
2019-05-07T12:54:59.876Z,99.90
2019-05-07T12:57:42.097Z,99.90
2019-05-07T13:00:34.355Z,99.90
2019-05-07T13:03:48.654Z,99.90
2019-05-07T13:06:22.407Z,99.90
2019-05-07T13:08:54.744Z,99.90
2019-05-07T13:11:32.556Z,99.90
2019-05-07T13:14:04.128Z,99.90
2019-05-07T13:16:44.915Z,99.90
2019-05-07T13:19:16.096Z,99.90
2019-05-07T13:21:55.410Z,99.90
2019-05-07T13:24:37.342Z,99.90
2019-05-07T13:27:15.071Z,99.90
2019-05-07T13:29:55.390Z,99.90
2019-05-07T13:32:29.238Z,99.90
2019-05-07T13:35:03.061Z,99.90
2019-05-07T13:37:42.069Z,99.90
2019-05-07T13:40:52.604Z,99.90
2019-05-07T13:43:31.987Z,99.90
2019-05-07T13:46:11.883Z,99.90
2019-05-07T13:48:48.873Z,99.90
2019-05-07T13:51:39.046Z,99.90
2019-05-07T13:54:10.040Z,99.90
2019-05-07T13:56:44.537Z,99.90
2019-05-07T13:59:15.489Z,99.90
2019-05-07T14:02:13.879Z,99.90
2019-05-07T14:04:48.402Z,99.90
2019-05-07T14:07:35.787Z,99.90
2019-05-07T14:10:14.900Z,99.90
2019-05-07T14:12:52.219Z,99.90
2019-05-07T14:15:27.661Z,99.90
2019-05-07T14:18:02.116Z,99.90
2019-05-07T14:20:38.032Z,99.90
2019-05-07T14:23:25.932Z,99.90
2019-05-07T14:26:02.026Z,99.90
2019-05-07T14:28:38.177Z,99.90
2019-05-07T14:31:23.840Z,99.90
2019-05-07T14:34:18.558Z,99.90
2019-05-07T14:37:12.781Z,99.90
2019-05-07T14:39:59.705Z,99.90
2019-05-07T14:42:44.539Z,99.90
2019-05-07T14:45:17.270Z,99.90
2019-05-07T14:47:49.199Z,99.90
2019-05-07T14:50:28.166Z,99.90
2019-05-07T14:53:02.686Z,99.90
2019-05-07T14:55:41.829Z,99.90
2019-05-07T14:58:17.718Z,99.90
2019-05-07T15:00:59.065Z,99.90
2019-05-07T15:03:51.634Z,99.90
2019-05-07T15:06:33.607Z,99.90
2019-05-07T15:09:12.252Z,99.90
2019-05-07T15:11:59.120Z,99.90
2019-05-07T15:14:36.623Z,99.90
2019-05-07T15:17:32.460Z,99.90
2019-05-07T15:20:02.777Z,99.90
2019-05-07T15:23:18.522Z,99.90
2019-05-07T15:26:06.320Z,99.90
2019-05-07T15:28:44.375Z,99.90
2019-05-07T15:31:26.649Z,99.90
2019-05-07T15:34:02.919Z,99.90
2019-05-07T15:36:34.222Z,99.90
2019-05-07T15:39:13.348Z,99.90
2019-05-07T15:41:51.890Z,99.90
2019-05-07T15:44:22.506Z,99.90
2019-05-07T15:46:58.686Z,99.90
2019-05-07T15:49:42.292Z,99.90
2019-05-07T15:52:26.032Z,99.90
2019-05-07T15:55:02.734Z,99.90
2019-05-07T15:57:44.497Z,99.90
2019-05-07T16:00:21.754Z,99.90
2019-05-07T16:03:03.094Z,99.90
2019-05-07T16:05:38.799Z,99.90
2019-05-07T16:08:12.346Z,99.90
2019-05-07T16:11:04.395Z,99.90
2019-05-07T16:13:44.943Z,99.90
2019-05-07T16:16:16.957Z,99.90
2019-05-07T16:19:19.474Z,99.90
2019-05-07T16:21:58.163Z,99.90
2019-05-07T16:24:44.667Z,99.90
2019-05-07T16:27:15.589Z,99.90
2019-05-07T16:29:48.996Z,99.90
2019-05-07T16:32:26.829Z,99.90
2019-05-07T16:34:58.237Z,99.90
2019-05-07T16:37:42.799Z,99.90
2019-05-07T16:40:22.811Z,99.90
2019-05-07T16:43:12.222Z,99.90
2019-05-07T16:45:48.206Z,99.90
2019-05-07T16:48:26.129Z,99.90
2019-05-07T16:51:10.198Z,99.90
2019-05-07T16:53:48.109Z,99.90
2019-05-07T16:56:19.401Z,99.90
2019-05-07T16:59:01.681Z,99.90
2019-05-07T17:01:39.532Z,99.90
2019-05-07T17:04:18.081Z,99.90
2019-05-07T17:07:22.047Z,99.90
2019-05-07T17:09:53.891Z,99.90
2019-05-07T17:12:25.915Z,99.90
2019-05-07T17:15:26.722Z,99.90
2019-05-07T17:18:05.330Z,99.90
2019-05-07T17:20:39.642Z,99.90
2019-05-07T17:23:12.479Z,99.90
2019-05-07T17:26:08.918Z,99.90
2019-05-07T17:28:55.923Z,99.90
2019-05-07T17:31:31.714Z,99.90
2019-05-07T17:34:07.216Z,99.90
2019-05-07T17:36:43.614Z,99.90
2019-05-07T17:39:24.155Z,99.90
2019-05-07T17:42:02.323Z,99.90
2019-05-07T17:44:38.825Z,99.90
2019-05-07T17:47:18.041Z,99.90
2019-05-07T17:49:55.215Z,99.90
2019-05-07T17:52:46.802Z,99.90
2019-05-07T17:55:23.322Z,99.90
2019-05-07T17:58:01.876Z,99.90
2019-05-07T18:00:39.045Z,99.90
2019-05-07T18:03:28.607Z,99.90
2019-05-07T18:06:13.610Z,99.90
2019-05-07T18:08:51.986Z,99.90
2019-05-07T18:11:33.427Z,99.90
2019-05-07T18:14:07.944Z,99.90
2019-05-07T18:17:06.401Z,99.90
2019-05-07T18:19:38.212Z,99.90
2019-05-07T18:22:08.922Z,99.90
2019-05-07T18:24:42.140Z,99.90
2019-05-07T18:27:23.212Z,99.90
2019-05-07T18:30:02.717Z,99.90
2019-05-07T18:32:38.609Z,99.90
2019-05-07T18:35:12.635Z,99.90
2019-05-07T18:38:02.646Z,99.90
2019-05-07T18:40:45.019Z,99.90
2019-05-07T18:43:22.473Z,99.90
2019-05-07T18:46:06.474Z,99.90
2019-05-07T18:48:44.445Z,99.90
2019-05-07T18:51:15.065Z,99.90
2019-05-07T18:53:48.930Z,99.90
2019-05-07T18:56:22.628Z,99.90
2019-05-07T18:58:57.636Z,99.90
2019-05-07T19:01:29.378Z,99.90
2019-05-07T19:04:02.097Z,99.90
2019-05-07T19:06:42.272Z,99.90
2019-05-07T19:09:16.165Z,99.90
2019-05-07T19:11:54.632Z,99.90
2019-05-07T19:14:26.921Z,99.90
2019-05-07T19:17:03.019Z,99.90
2019-05-07T19:19:33.373Z,99.90
2019-05-07T19:22:04.881Z,99.90
2019-05-07T19:24:52.890Z,99.90
2019-05-07T19:27:26.788Z,99.90
2019-05-07T19:30:00.622Z,99.90
2019-05-07T19:32:45.434Z,99.90
2019-05-07T19:35:33.420Z,99.90
2019-05-07T19:38:08.076Z,99.90
2019-05-07T19:40:42.027Z,99.90
2019-05-07T19:43:28.272Z,99.90
2019-05-07T19:46:12.125Z,99.90
2019-05-07T19:48:44.035Z,99.90
2019-05-07T19:51:19.287Z,99.90
2019-05-07T19:53:52.525Z,99.90
2019-05-07T19:56:39.086Z,99.90
2019-05-07T19:59:12.478Z,99.90
2019-05-07T20:01:48.238Z,99.90
2019-05-07T20:04:22.175Z,99.90
2019-05-07T20:07:02.812Z,99.90
2019-05-07T20:09:36.408Z,99.90
2019-05-07T20:12:13.926Z,99.90
2019-05-07T20:14:46.887Z,99.90
2019-05-07T20:17:23.732Z,99.90
2019-05-07T20:19:58.551Z,99.90
2019-05-07T20:22:41.413Z,99.90
2019-05-07T20:25:19.129Z,99.90
2019-05-07T20:27:52.578Z,99.90
2019-05-07T20:30:29.386Z,99.90
2019-05-07T20:33:03.422Z,99.90
2019-05-07T20:35:38.273Z,99.90
2019-05-07T20:38:08.631Z,99.90
2019-05-07T20:40:48.815Z,99.90
2019-05-07T20:43:28.017Z,99.90
2019-05-07T20:46:03.504Z,99.90
2019-05-07T20:48:37.415Z,99.90
2019-05-07T20:51:12.506Z,99.90
2019-05-07T20:54:03.751Z,99.90
2019-05-07T20:56:36.365Z,99.90
2019-05-07T20:59:17.824Z,99.90
2019-05-07T21:01:54.930Z,99.90
2019-05-07T21:04:33.014Z,99.90
2019-05-07T21:07:14.197Z,99.90
2019-05-07T21:09:58.318Z,99.90
2019-05-07T21:12:39.499Z,99.90
2019-05-07T21:15:13.783Z,99.90
2019-05-07T21:17:48.075Z,99.90
2019-05-07T21:20:18.978Z,99.90
2019-05-07T21:22:53.735Z,99.90
2019-05-07T21:25:42.303Z,99.90
2019-05-07T21:28:04.433Z,99.90
2019-05-07T21:30:55.943Z,99.90
2019-05-07T21:33:28.148Z,99.90
2019-05-07T21:36:25.107Z,99.90
2019-05-07T21:39:04.613Z,99.90
2019-05-07T21:41:36.312Z,99.90
2019-05-07T21:44:10.977Z,99.90
2019-05-07T21:46:44.676Z,99.90
2019-05-07T21:49:18.527Z,99.90
2019-05-07T21:51:54.591Z,99.90
2019-05-07T21:54:34.853Z,99.90
2019-05-07T21:57:28.947Z,99.90
2019-05-07T22:00:17.692Z,99.90
2019-05-07T22:02:49.211Z,99.90
2019-05-07T22:05:22.405Z,99.90
2019-05-07T22:07:54.501Z,99.90
2019-05-07T22:10:26.678Z,99.90
2019-05-07T22:12:57.905Z,99.90
2019-05-07T22:15:33.324Z,99.90
2019-05-07T22:18:14.967Z,99.90
2019-05-07T22:20:45.454Z,99.90
2019-05-07T22:23:19.583Z,99.90
2019-05-07T22:25:51.501Z,99.90
2019-05-07T22:28:22.632Z,99.90
2019-05-07T22:31:02.294Z,99.90
2019-05-07T22:33:41.824Z,99.90
2019-05-07T22:36:14.385Z,99.90
2019-05-07T22:38:47.604Z,99.90
2019-05-07T22:41:19.649Z,99.90
2019-05-07T22:43:55.461Z,99.90
2019-05-07T22:46:29.274Z,99.90
2019-05-07T22:49:03.767Z,99.90
2019-05-07T22:51:34.646Z,99.90
2019-05-07T22:54:06.877Z,99.90
2019-05-07T22:57:17.859Z,99.90
2019-05-07T22:59:48.063Z,99.90
2019-05-07T23:02:18.104Z,99.90
2019-05-07T23:04:48.549Z,99.90
2019-05-07T23:07:19.161Z,99.90
2019-05-07T23:09:52.075Z,99.90
2019-05-07T23:12:22.578Z,99.90
2019-05-07T23:14:53.684Z,99.90
2019-05-07T23:17:25.521Z,99.90
2019-05-07T23:19:56.564Z,99.90
2019-05-07T23:22:27.555Z,99.90
2019-05-07T23:24:58.420Z,99.90
2019-05-07T23:27:32.514Z,99.90
2019-05-07T23:30:04.319Z,99.90
2019-05-07T23:32:37.163Z,99.90
2019-05-07T23:35:12.677Z,99.90
2019-05-07T23:37:48.638Z,99.90
2019-05-07T23:40:30.672Z,99.90
2019-05-07T23:43:03.538Z,99.90
2019-05-07T23:45:34.500Z,99.90
2019-05-07T23:48:05.469Z,99.90
2019-05-07T23:50:41.849Z,99.90
2019-05-07T23:53:15.171Z,99.90
2019-05-07T23:55:48.773Z,99.90
2019-05-07T23:58:25.041Z,99.90
